sensor_id;sensor_type;location;lat;lon;timestamp;pressure;altitude;pressure_sealevel;temperature;humidity
71344;BME280;59146;43.850;25.948;2023-10-19T00:01:16;101220.22;;;10.55;69.30
71344;BME280;59146;43.850;25.948;2023-10-19T00:03:42;101217.53;;;10.57;69.62
71344;BME280;59146;43.850;25.948;2023-10-19T00:06:11;101173.16;;;10.21;69.56
71344;BME280;59146;43.850;25.948;2023-10-19T00:08:37;101191.06;;;10.28;70.15
71344;BME280;59146;43.850;25.948;2023-10-19T00:11:09;101151.72;;;10.14;70.22
71344;BME280;59146;43.850;25.948;2023-10-19T00:13:36;101162.50;;;10.25;69.87
71344;BME280;59146;43.850;25.948;2023-10-19T00:16:03;101194.00;;;10.39;70.37
71344;BME280;59146;43.850;25.948;2023-10-19T00:18:37;101186.34;;;10.36;70.03
71344;BME280;59146;43.850;25.948;2023-10-19T00:21:06;101052.09;;;9.52;69.96
71344;BME280;59146;43.850;25.948;2023-10-19T00:23:51;101176.97;;;10.32;70.31
71344;BME280;59146;43.850;25.948;2023-10-19T00:26:17;101174.03;;;10.38;70.08
71344;BME280;59146;43.850;25.948;2023-10-19T00:28:45;101177.72;;;10.52;69.99
71344;BME280;59146;43.850;25.948;2023-10-19T00:31:13;101136.47;;;10.24;69.97
71344;BME280;59146;43.850;25.948;2023-10-19T00:33:39;101148.84;;;10.37;69.91
71344;BME280;59146;43.850;25.948;2023-10-19T00:36:05;101121.19;;;10.33;69.72
71344;BME280;59146;43.850;25.948;2023-10-19T00:38:38;101175.44;;;10.63;69.65
71344;BME280;59146;43.850;25.948;2023-10-19T00:41:08;101089.25;;;10.11;69.75
71344;BME280;59146;43.850;25.948;2023-10-19T00:43:41;101168.03;;;10.54;70.08
71344;BME280;59146;43.850;25.948;2023-10-19T00:46:15;101121.72;;;10.23;70.20
71344;BME280;59146;43.850;25.948;2023-10-19T00:51:23;101081.75;;;10.04;71.02
71344;BME280;59146;43.850;25.948;2023-10-19T00:54:00;101075.28;;;9.94;71.63
71344;BME280;59146;43.850;25.948;2023-10-19T00:56:33;101138.06;;;10.26;71.89
71344;BME280;59146;43.850;25.948;2023-10-19T00:58:59;101115.19;;;10.14;72.39
71344;BME280;59146;43.850;25.948;2023-10-19T01:01:54;101152.97;;;10.42;72.78
71344;BME280;59146;43.850;25.948;2023-10-19T01:04:24;101080.88;;;10.03;73.31
71344;BME280;59146;43.850;25.948;2023-10-19T01:06:50;101102.81;;;10.35;74.14
71344;BME280;59146;43.850;25.948;2023-10-19T01:09:29;101126.41;;;10.51;74.90
71344;BME280;59146;43.850;25.948;2023-10-19T01:12:00;101175.13;;;10.69;74.83
71344;BME280;59146;43.850;25.948;2023-10-19T01:14:31;101103.59;;;10.37;74.94
71344;BME280;59146;43.850;25.948;2023-10-19T01:16:57;101091.38;;;10.37;75.49
71344;BME280;59146;43.850;25.948;2023-10-19T01:19:23;101103.81;;;10.50;77.58
71344;BME280;59146;43.850;25.948;2023-10-19T01:21:49;101100.13;;;10.54;77.79
71344;BME280;59146;43.850;25.948;2023-10-19T01:24:21;101160.38;;;10.85;78.08
71344;BME280;59146;43.850;25.948;2023-10-19T01:27:07;101090.94;;;10.47;77.62
71344;BME280;59146;43.850;25.948;2023-10-19T01:29:35;101159.66;;;10.81;77.28
71344;BME280;59146;43.850;25.948;2023-10-19T01:32:03;101100.47;;;10.30;76.78
71344;BME280;59146;43.850;25.948;2023-10-19T01:34:32;101086.25;;;10.19;76.23
71344;BME280;59146;43.850;25.948;2023-10-19T01:36:59;101125.03;;;10.44;76.67
71344;BME280;59146;43.850;25.948;2023-10-19T01:39:33;101165.44;;;10.54;76.83
71344;BME280;59146;43.850;25.948;2023-10-19T01:42:01;101112.06;;;10.06;77.57
71344;BME280;59146;43.850;25.948;2023-10-19T01:44:29;101069.28;;;9.56;78.44
71344;BME280;59146;43.850;25.948;2023-10-19T01:46:54;101127.59;;;10.09;78.99
71344;BME280;59146;43.850;25.948;2023-10-19T01:49:20;101080.13;;;9.84;78.24
71344;BME280;59146;43.850;25.948;2023-10-19T01:51:53;101124.72;;;10.15;78.21
71344;BME280;59146;43.850;25.948;2023-10-19T01:54:20;101131.91;;;10.10;77.99
71344;BME280;59146;43.850;25.948;2023-10-19T01:56:51;101115.75;;;10.02;77.66
71344;BME280;59146;43.850;25.948;2023-10-19T01:59:20;101079.47;;;9.79;77.60
71344;BME280;59146;43.850;25.948;2023-10-19T02:01:45;101120.03;;;10.03;77.73
71344;BME280;59146;43.850;25.948;2023-10-19T02:04:11;101139.44;;;10.16;77.48
71344;BME280;59146;43.850;25.948;2023-10-19T02:06:38;101031.63;;;9.61;76.78
71344;BME280;59146;43.850;25.948;2023-10-19T02:09:12;101168.28;;;10.49;76.37
71344;BME280;59146;43.850;25.948;2023-10-19T02:11:55;101043.84;;;9.78;75.48
71344;BME280;59146;43.850;25.948;2023-10-19T02:14:23;101146.84;;;10.43;75.49
71344;BME280;59146;43.850;25.948;2023-10-19T02:16:54;101064.00;;;9.93;75.65
71344;BME280;59146;43.850;25.948;2023-10-19T02:19:22;101092.41;;;9.99;75.66
71344;BME280;59146;43.850;25.948;2023-10-19T02:21:49;101079.88;;;9.89;75.68
71344;BME280;59146;43.850;25.948;2023-10-19T02:24:16;101135.63;;;10.23;75.90
71344;BME280;59146;43.850;25.948;2023-10-19T02:26:42;101109.59;;;10.22;75.39
71344;BME280;59146;43.850;25.948;2023-10-19T02:29:09;101111.06;;;10.27;76.08
71344;BME280;59146;43.850;25.948;2023-10-19T02:31:35;101111.59;;;10.34;76.24
71344;BME280;59146;43.850;25.948;2023-10-19T02:34:03;101125.13;;;10.42;76.62
71344;BME280;59146;43.850;25.948;2023-10-19T02:36:30;101076.78;;;10.16;77.09
71344;BME280;59146;43.850;25.948;2023-10-19T02:38:57;101058.16;;;9.88;77.47
71344;BME280;59146;43.850;25.948;2023-10-19T02:41:29;101117.59;;;10.00;78.31
71344;BME280;59146;43.850;25.948;2023-10-19T02:43:54;101072.63;;;9.77;78.63
71344;BME280;59146;43.850;25.948;2023-10-19T02:46:29;101109.53;;;10.05;78.01
71344;BME280;59146;43.850;25.948;2023-10-19T02:48:54;101047.91;;;9.67;78.61
71344;BME280;59146;43.850;25.948;2023-10-19T02:51:20;101076.75;;;9.82;78.74
71344;BME280;59146;43.850;25.948;2023-10-19T02:53:45;101105.63;;;9.96;79.10
71344;BME280;59146;43.850;25.948;2023-10-19T02:56:12;101056.25;;;9.56;79.61
71344;BME280;59146;43.850;25.948;2023-10-19T02:58:41;100998.31;;;9.14;79.58
71344;BME280;59146;43.850;25.948;2023-10-19T03:01:18;101115.38;;;9.74;79.20
71344;BME280;59146;43.850;25.948;2023-10-19T03:03:55;101089.88;;;9.62;78.04
71344;BME280;59146;43.850;25.948;2023-10-19T03:06:29;101130.47;;;9.86;78.14
71344;BME280;59146;43.850;25.948;2023-10-19T03:09:04;101054.06;;;9.47;78.59
71344;BME280;59146;43.850;25.948;2023-10-19T03:11:59;101110.91;;;9.76;78.62
71344;BME280;59146;43.850;25.948;2023-10-19T03:14:26;101091.69;;;9.60;78.41
71344;BME280;59146;43.850;25.948;2023-10-19T03:16:52;101148.78;;;9.85;77.90
71344;BME280;59146;43.850;25.948;2023-10-19T03:19:20;101085.28;;;9.67;78.57
71344;BME280;59146;43.850;25.948;2023-10-19T03:21:46;101134.06;;;9.84;79.09
71344;BME280;59146;43.850;25.948;2023-10-19T03:24:17;101054.66;;;9.35;79.39
71344;BME280;59146;43.850;25.948;2023-10-19T03:27:04;101018.38;;;9.12;80.40
71344;BME280;59146;43.850;25.948;2023-10-19T03:29:48;101080.16;;;9.47;81.18
71344;BME280;59146;43.850;25.948;2023-10-19T03:32:20;101106.88;;;9.52;81.89
71344;BME280;59146;43.850;25.948;2023-10-19T03:34:52;101070.00;;;9.41;81.73
71344;BME280;59146;43.850;25.948;2023-10-19T03:37:23;101073.25;;;9.46;81.66
71344;BME280;59146;43.850;25.948;2023-10-19T03:39:50;101090.94;;;9.58;81.34
71344;BME280;59146;43.850;25.948;2023-10-19T03:42:16;101069.19;;;9.40;81.26
71344;BME280;59146;43.850;25.948;2023-10-19T03:44:42;101042.97;;;9.25;81.64
71344;BME280;59146;43.850;25.948;2023-10-19T03:47:14;101071.25;;;9.51;81.48
71344;BME280;59146;43.850;25.948;2023-10-19T03:49:43;100919.47;;;8.54;80.50
71344;BME280;59146;43.850;25.948;2023-10-19T03:52:09;101054.25;;;9.25;80.97
71344;BME280;59146;43.850;25.948;2023-10-19T03:54:35;101069.44;;;9.16;81.35
71344;BME280;59146;43.850;25.948;2023-10-19T03:57:12;101061.00;;;9.11;81.57
71344;BME280;59146;43.850;25.948;2023-10-19T03:59:38;101010.72;;;8.90;81.38
71344;BME280;59146;43.850;25.948;2023-10-19T04:02:04;100986.34;;;8.72;81.77
71344;BME280;59146;43.850;25.948;2023-10-19T04:04:44;101109.91;;;9.43;81.02
71344;BME280;59146;43.850;25.948;2023-10-19T04:07:13;101104.47;;;9.29;81.30
71344;BME280;59146;43.850;25.948;2023-10-19T04:09:53;101051.41;;;8.93;81.03
71344;BME280;59146;43.850;25.948;2023-10-19T04:12:38;101015.88;;;8.71;81.41
71344;BME280;59146;43.850;25.948;2023-10-19T04:15:08;101052.03;;;8.79;82.06
71344;BME280;59146;43.850;25.948;2023-10-19T04:17:36;101030.13;;;8.44;82.79
71344;BME280;59146;43.850;25.948;2023-10-19T04:20:02;101052.00;;;8.60;83.18
71344;BME280;59146;43.850;25.948;2023-10-19T04:22:38;101087.56;;;8.80;83.51
71344;BME280;59146;43.850;25.948;2023-10-19T04:25:04;100947.56;;;8.28;82.87
71344;BME280;59146;43.850;25.948;2023-10-19T04:27:31;100912.00;;;7.88;83.26
71344;BME280;59146;43.850;25.948;2023-10-19T04:30:01;101035.44;;;8.82;83.21
71344;BME280;59146;43.850;25.948;2023-10-19T04:32:26;101017.44;;;8.75;83.17
71344;BME280;59146;43.850;25.948;2023-10-19T04:34:53;101103.56;;;9.30;83.02
71344;BME280;59146;43.850;25.948;2023-10-19T04:37:18;101092.84;;;9.36;82.44
71344;BME280;59146;43.850;25.948;2023-10-19T04:39:45;101059.66;;;9.21;82.09
71344;BME280;59146;43.850;25.948;2023-10-19T04:42:10;101034.94;;;8.92;82.29
71344;BME280;59146;43.850;25.948;2023-10-19T04:44:35;101030.50;;;8.94;82.86
71344;BME280;59146;43.850;25.948;2023-10-19T04:47:01;101040.66;;;9.00;81.57
71344;BME280;59146;43.850;25.948;2023-10-19T04:49:27;101077.34;;;9.33;80.97
71344;BME280;59146;43.850;25.948;2023-10-19T04:51:55;101057.75;;;9.24;80.64
71344;BME280;59146;43.850;25.948;2023-10-19T04:54:21;101087.47;;;9.39;79.99
71344;BME280;59146;43.850;25.948;2023-10-19T04:56:46;101078.88;;;9.37;79.39
71344;BME280;59146;43.850;25.948;2023-10-19T04:59:11;100992.03;;;8.80;78.46
71344;BME280;59146;43.850;25.948;2023-10-19T05:01:37;101027.41;;;9.05;77.84
71344;BME280;59146;43.850;25.948;2023-10-19T05:04:03;101034.94;;;9.11;76.82
71344;BME280;59146;43.850;25.948;2023-10-19T05:06:28;101071.28;;;9.32;76.30
71344;BME280;59146;43.850;25.948;2023-10-19T05:08:53;101049.09;;;9.24;76.36
71344;BME280;59146;43.850;25.948;2023-10-19T05:11:19;101020.41;;;9.24;75.72
71344;BME280;59146;43.850;25.948;2023-10-19T05:13:44;101068.03;;;9.46;76.33
71344;BME280;59146;43.850;25.948;2023-10-19T05:16:10;101034.34;;;9.41;75.53
71344;BME280;59146;43.850;25.948;2023-10-19T05:18:35;101103.66;;;9.83;75.46
71344;BME280;59146;43.850;25.948;2023-10-19T05:21:01;101044.66;;;9.44;76.57
71344;BME280;59146;43.850;25.948;2023-10-19T05:23:27;100978.72;;;9.05;76.54
71344;BME280;59146;43.850;25.948;2023-10-19T05:26:03;101040.94;;;9.67;76.03
71344;BME280;59146;43.850;25.948;2023-10-19T05:28:30;101061.03;;;9.65;77.15
71344;BME280;59146;43.850;25.948;2023-10-19T05:30:56;101052.88;;;9.90;76.53
71344;BME280;59146;43.850;25.948;2023-10-19T05:33:21;101119.16;;;10.73;75.60
71344;BME280;59146;43.850;25.948;2023-10-19T05:35:49;101107.69;;;11.41;73.50
71344;BME280;59146;43.850;25.948;2023-10-19T05:38:15;101064.94;;;12.03;69.61
71344;BME280;59146;43.850;25.948;2023-10-19T05:40:41;101040.94;;;12.54;66.95
71344;BME280;59146;43.850;25.948;2023-10-19T05:43:08;101097.94;;;13.08;65.75
71344;BME280;59146;43.850;25.948;2023-10-19T05:45:34;100969.16;;;12.42;64.62
71344;BME280;59146;43.850;25.948;2023-10-19T05:48:02;101090.81;;;13.10;64.23
71344;BME280;59146;43.850;25.948;2023-10-19T05:50:29;101034.25;;;13.06;62.83
71344;BME280;59146;43.850;25.948;2023-10-19T05:52:55;101108.91;;;13.55;61.54
71344;BME280;59146;43.850;25.948;2023-10-19T05:55:20;101119.53;;;13.54;60.39
71344;BME280;59146;43.850;25.948;2023-10-19T05:57:48;101063.06;;;13.20;60.87
71344;BME280;59146;43.850;25.948;2023-10-19T06:00:14;101119.66;;;13.24;61.22
71344;BME280;59146;43.850;25.948;2023-10-19T06:02:47;101053.88;;;12.99;61.02
71344;BME280;59146;43.850;25.948;2023-10-19T06:05:15;101040.69;;;13.15;60.02
71344;BME280;59146;43.850;25.948;2023-10-19T06:07:42;101048.25;;;13.33;59.40
71344;BME280;59146;43.850;25.948;2023-10-19T06:10:11;101074.63;;;13.59;59.34
71344;BME280;59146;43.850;25.948;2023-10-19T06:12:41;101124.56;;;13.98;59.62
71344;BME280;59146;43.850;25.948;2023-10-19T06:15:07;101104.28;;;14.00;59.48
71344;BME280;59146;43.850;25.948;2023-10-19T06:17:33;101097.81;;;14.32;59.26
71344;BME280;59146;43.850;25.948;2023-10-19T06:19:58;101082.16;;;14.16;59.23
71344;BME280;59146;43.850;25.948;2023-10-19T06:22:24;101070.00;;;14.15;59.78
71344;BME280;59146;43.850;25.948;2023-10-19T06:24:49;101031.06;;;13.95;59.79
71344;BME280;59146;43.850;25.948;2023-10-19T06:27:15;101087.97;;;14.21;59.98
71344;BME280;59146;43.850;25.948;2023-10-19T06:29:40;101062.00;;;13.78;60.90
71344;BME280;59146;43.850;25.948;2023-10-19T06:32:05;101103.06;;;14.32;60.34
71344;BME280;59146;43.850;25.948;2023-10-19T06:34:31;101063.03;;;14.14;59.96
71344;BME280;59146;43.850;25.948;2023-10-19T06:36:57;101087.44;;;14.43;59.43
71344;BME280;59146;43.850;25.948;2023-10-19T06:39:24;101113.72;;;14.68;59.36
71344;BME280;59146;43.850;25.948;2023-10-19T06:41:49;101099.97;;;14.77;58.60
71344;BME280;59146;43.850;25.948;2023-10-19T06:44:15;101066.78;;;15.12;57.21
71344;BME280;59146;43.850;25.948;2023-10-19T06:46:42;101099.34;;;14.86;58.68
71344;BME280;59146;43.850;25.948;2023-10-19T06:49:08;101051.47;;;14.81;57.96
71344;BME280;59146;43.850;25.948;2023-10-19T06:51:34;101098.16;;;15.16;57.77
71344;BME280;59146;43.850;25.948;2023-10-19T06:53:59;101056.28;;;14.75;58.36
71344;BME280;59146;43.850;25.948;2023-10-19T06:56:25;101064.72;;;14.92;57.51
71344;BME280;59146;43.850;25.948;2023-10-19T06:58:51;101055.03;;;14.93;57.18
71344;BME280;59146;43.850;25.948;2023-10-19T07:01:16;101047.22;;;14.91;56.81
71344;BME280;59146;43.850;25.948;2023-10-19T07:03:43;101045.22;;;15.20;56.74
71344;BME280;59146;43.850;25.948;2023-10-19T07:06:09;101094.91;;;15.61;55.70
71344;BME280;59146;43.850;25.948;2023-10-19T07:08:39;101054.41;;;15.51;55.43
71344;BME280;59146;43.850;25.948;2023-10-19T07:11:06;101088.03;;;15.71;55.53
71344;BME280;59146;43.850;25.948;2023-10-19T07:13:32;101032.69;;;15.60;54.41
71344;BME280;59146;43.850;25.948;2023-10-19T07:15:59;101087.91;;;15.96;54.30
71344;BME280;59146;43.850;25.948;2023-10-19T07:18:24;101042.03;;;15.64;54.75
71344;BME280;59146;43.850;25.948;2023-10-19T07:20:50;101078.88;;;16.11;53.78
71344;BME280;59146;43.850;25.948;2023-10-19T07:23:15;101072.72;;;16.23;53.70
71344;BME280;59146;43.850;25.948;2023-10-19T07:25:47;101085.44;;;16.29;54.26
71344;BME280;59146;43.850;25.948;2023-10-19T07:28:16;101027.16;;;16.10;53.64
71344;BME280;59146;43.850;25.948;2023-10-19T07:30:42;101061.94;;;16.26;54.78
71344;BME280;59146;43.850;25.948;2023-10-19T07:33:12;101036.97;;;16.19;54.07
71344;BME280;59146;43.850;25.948;2023-10-19T07:35:48;101064.34;;;16.29;54.80
71344;BME280;59146;43.850;25.948;2023-10-19T07:38:22;101081.78;;;16.19;55.43
71344;BME280;59146;43.850;25.948;2023-10-19T07:40:48;101080.53;;;16.01;56.34
71344;BME280;59146;43.850;25.948;2023-10-19T07:43:14;101064.84;;;16.00;57.09
71344;BME280;59146;43.850;25.948;2023-10-19T07:45:39;101034.19;;;15.51;58.39
71344;BME280;59146;43.850;25.948;2023-10-19T07:48:05;101033.41;;;15.62;58.45
71344;BME280;59146;43.850;25.948;2023-10-19T07:50:35;101052.13;;;15.70;59.23
71344;BME280;59146;43.850;25.948;2023-10-19T07:53:01;101057.47;;;15.81;58.28
71344;BME280;59146;43.850;25.948;2023-10-19T07:55:27;101025.34;;;15.76;57.32
71344;BME280;59146;43.850;25.948;2023-10-19T07:57:52;101035.41;;;15.82;58.12
71344;BME280;59146;43.850;25.948;2023-10-19T08:00:20;101063.06;;;16.00;57.32
71344;BME280;59146;43.850;25.948;2023-10-19T08:02:45;101025.28;;;15.88;57.01
71344;BME280;59146;43.850;25.948;2023-10-19T08:05:15;101012.50;;;15.71;57.15
71344;BME280;59146;43.850;25.948;2023-10-19T08:07:41;101057.63;;;16.25;56.40
71344;BME280;59146;43.850;25.948;2023-10-19T08:10:13;101056.44;;;16.40;54.87
71344;BME280;59146;43.850;25.948;2023-10-19T08:12:41;101005.75;;;16.37;54.00
71344;BME280;59146;43.850;25.948;2023-10-19T08:15:10;100995.50;;;16.56;53.40
71344;BME280;59146;43.850;25.948;2023-10-19T08:17:45;100989.75;;;16.62;53.84
71344;BME280;59146;43.850;25.948;2023-10-19T08:20:12;100977.88;;;16.79;52.79
71344;BME280;59146;43.850;25.948;2023-10-19T08:22:56;101004.88;;;16.93;52.55
71344;BME280;59146;43.850;25.948;2023-10-19T08:25:23;100948.66;;;16.71;53.11
71344;BME280;59146;43.850;25.948;2023-10-19T08:27:49;101030.50;;;17.24;52.64
71344;BME280;59146;43.850;25.948;2023-10-19T08:30:17;100965.66;;;16.89;52.04
71344;BME280;59146;43.850;25.948;2023-10-19T08:32:44;100977.84;;;17.23;51.66
71344;BME280;59146;43.850;25.948;2023-10-19T08:35:13;101020.72;;;17.58;51.66
71344;BME280;59146;43.850;25.948;2023-10-19T08:37:39;100976.34;;;17.41;51.77
71344;BME280;59146;43.850;25.948;2023-10-19T08:40:10;101019.13;;;17.78;51.91
71344;BME280;59146;43.850;25.948;2023-10-19T08:42:45;101004.94;;;17.79;52.09
71344;BME280;59146;43.850;25.948;2023-10-19T08:45:12;100980.34;;;17.78;51.90
71344;BME280;59146;43.850;25.948;2023-10-19T08:47:44;101023.16;;;18.13;51.70
71344;BME280;59146;43.850;25.948;2023-10-19T08:50:13;100979.16;;;18.12;50.85
71344;BME280;59146;43.850;25.948;2023-10-19T08:52:41;100992.78;;;18.08;50.63
71344;BME280;59146;43.850;25.948;2023-10-19T08:55:07;101003.63;;;18.25;50.01
71344;BME280;59146;43.850;25.948;2023-10-19T08:57:34;101000.06;;;18.15;50.20
71344;BME280;59146;43.850;25.948;2023-10-19T09:00:01;101005.22;;;18.38;50.18
71344;BME280;59146;43.850;25.948;2023-10-19T09:02:31;101007.25;;;18.45;50.10
71344;BME280;59146;43.850;25.948;2023-10-19T09:04:58;100934.38;;;18.11;49.69
71344;BME280;59146;43.850;25.948;2023-10-19T09:07:25;100995.94;;;18.64;49.16
71344;BME280;59146;43.850;25.948;2023-10-19T09:09:56;100987.41;;;18.60;49.88
71344;BME280;59146;43.850;25.948;2023-10-19T09:12:22;100970.97;;;18.57;48.95
71344;BME280;59146;43.850;25.948;2023-10-19T09:14:48;100952.59;;;18.55;49.43
71344;BME280;59146;43.850;25.948;2023-10-19T09:17:15;100938.28;;;18.67;49.00
71344;BME280;59146;43.850;25.948;2023-10-19T09:19:44;100959.84;;;18.93;48.35
71344;BME280;59146;43.850;25.948;2023-10-19T09:22:12;100952.84;;;18.92;47.33
71344;BME280;59146;43.850;25.948;2023-10-19T09:24:45;100975.72;;;19.02;46.87
71344;BME280;59146;43.850;25.948;2023-10-19T09:27:11;100956.66;;;19.09;46.32
71344;BME280;59146;43.850;25.948;2023-10-19T09:29:38;100984.50;;;19.43;45.82
71344;BME280;59146;43.850;25.948;2023-10-19T09:32:05;100955.22;;;19.44;45.46
71344;BME280;59146;43.850;25.948;2023-10-19T09:34:31;100953.56;;;19.43;44.74
71344;BME280;59146;43.850;25.948;2023-10-19T09:36:59;100986.19;;;19.72;44.65
71344;BME280;59146;43.850;25.948;2023-10-19T09:39:27;100966.50;;;19.65;44.47
71344;BME280;59146;43.850;25.948;2023-10-19T09:42:05;100948.53;;;19.50;44.17
71344;BME280;59146;43.850;25.948;2023-10-19T09:44:41;100945.03;;;19.59;43.34
71344;BME280;59146;43.850;25.948;2023-10-19T09:47:13;100929.00;;;19.60;43.91
71344;BME280;59146;43.850;25.948;2023-10-19T09:49:43;100937.34;;;19.85;42.93
71344;BME280;59146;43.850;25.948;2023-10-19T09:52:10;100929.81;;;19.90;43.02
71344;BME280;59146;43.850;25.948;2023-10-19T09:54:50;100985.88;;;20.14;42.72
71344;BME280;59146;43.850;25.948;2023-10-19T09:57:23;100952.53;;;20.21;42.76
71344;BME280;59146;43.850;25.948;2023-10-19T10:00:00;100909.97;;;20.03;42.11
71344;BME280;59146;43.850;25.948;2023-10-19T10:02:34;100911.91;;;20.20;40.85
71344;BME280;59146;43.850;25.948;2023-10-19T10:05:00;100885.13;;;20.04;41.03
71344;BME280;59146;43.850;25.948;2023-10-19T10:07:26;100937.00;;;20.35;40.55
71344;BME280;59146;43.850;25.948;2023-10-19T10:09:54;100918.44;;;20.35;40.80
71344;BME280;59146;43.850;25.948;2023-10-19T10:12:25;100931.03;;;20.61;39.94
71344;BME280;59146;43.850;25.948;2023-10-19T10:14:57;100933.69;;;20.88;39.51
71344;BME280;59146;43.850;25.948;2023-10-19T10:17:33;100919.19;;;20.82;39.63
71344;BME280;59146;43.850;25.948;2023-10-19T10:22:41;100887.97;;;20.94;38.76
71344;BME280;59146;43.850;25.948;2023-10-19T10:25:25;100854.41;;;20.75;39.48
71344;BME280;59146;43.850;25.948;2023-10-19T10:27:53;100901.69;;;20.89;39.63
71344;BME280;59146;43.850;25.948;2023-10-19T10:30:19;100849.13;;;20.48;38.87
71344;BME280;59146;43.850;25.948;2023-10-19T10:32:46;100914.88;;;21.08;38.79
71344;BME280;59146;43.850;25.948;2023-10-19T10:35:54;100897.56;;;21.22;38.39
71344;BME280;59146;43.850;25.948;2023-10-19T10:38:19;100869.28;;;21.13;38.17
71344;BME280;59146;43.850;25.948;2023-10-19T10:40:47;100818.00;;;20.85;37.78
71344;BME280;59146;43.850;25.948;2023-10-19T10:43:13;100827.41;;;20.97;37.80
71344;BME280;59146;43.850;25.948;2023-10-19T10:45:38;100831.72;;;20.81;37.87
71344;BME280;59146;43.850;25.948;2023-10-19T10:48:11;100850.22;;;20.73;38.21
71344;BME280;59146;43.850;25.948;2023-10-19T10:50:37;100811.84;;;20.67;37.43
71344;BME280;59146;43.850;25.948;2023-10-19T10:53:04;100834.41;;;20.98;37.54
71344;BME280;59146;43.850;25.948;2023-10-19T10:55:30;100862.28;;;21.12;37.30
71344;BME280;59146;43.850;25.948;2023-10-19T10:57:56;100813.41;;;21.05;37.22
71344;BME280;59146;43.850;25.948;2023-10-19T11:00:22;100864.16;;;21.55;37.17
71344;BME280;59146;43.850;25.948;2023-10-19T11:03:08;100799.97;;;21.06;36.80
71344;BME280;59146;43.850;25.948;2023-10-19T11:05:35;100858.91;;;21.63;35.94
71344;BME280;59146;43.850;25.948;2023-10-19T11:10:30;100820.53;;;21.65;35.23
71344;BME280;59146;43.850;25.948;2023-10-19T11:13:06;100785.16;;;21.65;35.47
71344;BME280;59146;43.850;25.948;2023-10-19T11:15:37;100774.09;;;21.52;35.51
71344;BME280;59146;43.850;25.948;2023-10-19T11:18:03;100753.34;;;21.29;35.22
71344;BME280;59146;43.850;25.948;2023-10-19T11:20:29;100774.63;;;21.55;34.21
71344;BME280;59146;43.850;25.948;2023-10-19T11:22:55;100808.47;;;21.79;34.47
71344;BME280;59146;43.850;25.948;2023-10-19T11:25:24;100820.59;;;21.91;33.95
71344;BME280;59146;43.850;25.948;2023-10-19T11:27:49;100825.13;;;22.06;33.93
71344;BME280;59146;43.850;25.948;2023-10-19T11:32:50;100789.72;;;22.06;33.46
71344;BME280;59146;43.850;25.948;2023-10-19T11:35:19;100755.47;;;21.52;34.54
71344;BME280;59146;43.850;25.948;2023-10-19T11:37:49;100803.13;;;21.71;33.91
71344;BME280;59146;43.850;25.948;2023-10-19T11:40:15;100780.47;;;21.59;33.06
71344;BME280;59146;43.850;25.948;2023-10-19T11:42:41;100743.84;;;21.45;33.59
71344;BME280;59146;43.850;25.948;2023-10-19T11:45:06;100789.59;;;22.07;32.34
71344;BME280;59146;43.850;25.948;2023-10-19T11:47:32;100682.56;;;21.20;32.83
71344;BME280;59146;43.850;25.948;2023-10-19T11:49:58;100790.06;;;22.03;33.17
71344;BME280;59146;43.850;25.948;2023-10-19T11:52:23;100757.00;;;21.80;34.30
71344;BME280;59146;43.850;25.948;2023-10-19T11:54:49;100757.97;;;21.79;32.30
71344;BME280;59146;43.850;25.948;2023-10-19T11:57:14;100721.16;;;21.58;32.15
71344;BME280;59146;43.850;25.948;2023-10-19T11:59:40;100728.06;;;21.51;32.63
71344;BME280;59146;43.850;25.948;2023-10-19T12:02:09;100727.41;;;21.49;33.40
71344;BME280;59146;43.850;25.948;2023-10-19T12:04:35;100721.41;;;21.21;33.98
71344;BME280;59146;43.850;25.948;2023-10-19T12:07:02;100699.16;;;21.48;32.69
71344;BME280;59146;43.850;25.948;2023-10-19T12:09:28;100767.84;;;22.20;32.93
71344;BME280;59146;43.850;25.948;2023-10-19T12:11:55;100718.38;;;22.01;32.14
71344;BME280;59146;43.850;25.948;2023-10-19T12:14:21;100725.63;;;21.83;32.47
71344;BME280;59146;43.850;25.948;2023-10-19T12:16:47;100704.69;;;21.55;33.73
71344;BME280;59146;43.850;25.948;2023-10-19T12:19:12;100705.19;;;21.32;34.00
71344;BME280;59146;43.850;25.948;2023-10-19T12:21:39;100751.00;;;21.78;34.92
71344;BME280;59146;43.850;25.948;2023-10-19T12:24:07;100692.91;;;21.57;33.80
71344;BME280;59146;43.850;25.948;2023-10-19T12:26:33;100746.19;;;22.07;32.89
71344;BME280;59146;43.850;25.948;2023-10-19T12:28:58;100742.00;;;22.04;32.41
71344;BME280;59146;43.850;25.948;2023-10-19T12:31:24;100750.53;;;22.16;32.06
71344;BME280;59146;43.850;25.948;2023-10-19T12:33:50;100701.59;;;22.01;32.04
71344;BME280;59146;43.850;25.948;2023-10-19T12:36:16;100754.91;;;22.33;32.36
71344;BME280;59146;43.850;25.948;2023-10-19T12:38:54;100660.56;;;21.70;31.96
71344;BME280;59146;43.850;25.948;2023-10-19T12:41:23;100708.06;;;21.90;31.93
71344;BME280;59146;43.850;25.948;2023-10-19T12:43:49;100756.38;;;22.20;31.89
71344;BME280;59146;43.850;25.948;2023-10-19T12:46:22;100708.97;;;22.15;31.64
71344;BME280;59146;43.850;25.948;2023-10-19T12:48:50;100708.38;;;21.95;31.79
71344;BME280;59146;43.850;25.948;2023-10-19T12:51:16;100692.53;;;22.28;31.28
71344;BME280;59146;43.850;25.948;2023-10-19T12:53:48;100754.84;;;22.67;32.27
71344;BME280;59146;43.850;25.948;2023-10-19T12:56:14;100714.47;;;22.22;31.96
71344;BME280;59146;43.850;25.948;2023-10-19T12:58:39;100708.25;;;21.97;32.59
71344;BME280;59146;43.850;25.948;2023-10-19T13:01:06;100740.72;;;22.25;32.10